Terminal Aerodrome Forecast
Issued by NWS

Home | Current Version | Previous Version | Text Only | Print | Product List | Glossary On
Versions: 1 2 3 4 5 6 7 8 9 10 11 12 13 14 15 16
000
FTUS44 KEPZ 210500
TAFDMN
TAF
KDMN 210539Z 2106/2206 07009KT P6SM SCT060 SCT250
     FM212200 12009KT P6SM VCTS SCT050CB SCT100 BKN200
      TEMPO 2202/2206 VRB25G35KT 3SM TSRA BKN040CB OVC080=

USA.gov is the U.S. government's official web portal to all federal, state and local government web resources and services.